createdAt,value
2023-01-06T00:01:18.495Z,10.91
2023-01-06T00:03:51.287Z,10.99
2023-01-06T00:06:19.593Z,10.89
2023-01-06T00:08:46.459Z,10.90
2023-01-06T00:11:15.086Z,10.73
2023-01-06T00:13:42.437Z,10.63
2023-01-06T00:16:19.999Z,10.57
2023-01-06T00:18:47.300Z,10.58
2023-01-06T00:21:15.475Z,10.46
2023-01-06T00:23:42.379Z,10.34
2023-01-06T00:26:10.531Z,10.34
2023-01-06T00:28:38.160Z,10.33
2023-01-06T00:31:11.960Z,10.14
2023-01-06T00:33:40.955Z,10.30
2023-01-06T00:36:10.653Z,10.08
2023-01-06T00:38:38.847Z,10.09
2023-01-06T00:41:29.593Z,10.06
2023-01-06T00:43:58.219Z,10.05
2023-01-06T00:46:29.326Z,10.07
2023-01-06T00:49:05.095Z,10.02
2023-01-06T00:51:36.589Z,9.92
2023-01-06T00:54:05.217Z,9.91
2023-01-06T00:56:32.221Z,9.77
2023-01-06T00:58:59.071Z,9.85
2023-01-06T01:01:26.019Z,9.98
2023-01-06T01:03:52.919Z,9.94
2023-01-06T01:06:20.459Z,9.99
2023-01-06T01:08:47.398Z,9.92
2023-01-06T01:11:34.355Z,9.90
2023-01-06T01:14:01.245Z,9.88
2023-01-06T01:16:28.150Z,9.77
2023-01-06T01:18:55.074Z,9.73
2023-01-06T01:21:21.985Z,9.76
2023-01-06T01:23:49.032Z,9.72
2023-01-06T01:26:15.877Z,9.63
2023-01-06T01:28:42.935Z,9.53
2023-01-06T01:31:09.902Z,9.43
2023-01-06T01:33:38.140Z,9.53
2023-01-06T01:36:13.814Z,9.57
2023-01-06T01:38:40.835Z,9.40
2023-01-06T01:41:09.441Z,9.34
2023-01-06T01:43:56.304Z,9.33
2023-01-06T01:46:36.676Z,9.27
2023-01-06T01:49:18.239Z,9.26
2023-01-06T01:51:48.405Z,9.32
2023-01-06T01:54:21.634Z,9.27
2023-01-06T01:56:55.308Z,9.19
2023-01-06T01:59:26.076Z,9.17
2023-01-06T02:01:54.577Z,9.14
2023-01-06T02:04:23.329Z,9.28
2023-01-06T02:06:51.475Z,9.37
2023-01-06T02:09:26.574Z,9.17
2023-01-06T02:11:54.423Z,9.42
2023-01-06T02:14:24.183Z,9.24
2023-01-06T02:17:16.613Z,9.36
2023-01-06T02:20:10.820Z,9.26
2023-01-06T02:22:55.407Z,9.22
2023-01-06T02:25:31.460Z,9.47
2023-01-06T02:28:13.693Z,9.19
2023-01-06T02:30:53.094Z,9.13
2023-01-06T02:33:31.779Z,9.01
2023-01-06T02:36:45.205Z,9.15
2023-01-06T02:39:30.690Z,9.26
2023-01-06T02:42:17.733Z,9.52
2023-01-06T02:45:05.855Z,9.40
2023-01-06T02:47:44.833Z,9.48
2023-01-06T02:50:20.881Z,9.62
2023-01-06T02:53:06.273Z,9.71
2023-01-06T02:55:39.069Z,9.38
2023-01-06T02:58:11.176Z,9.67
2023-01-06T03:00:46.001Z,9.84
2023-01-06T03:03:20.848Z,9.72
2023-01-06T03:05:54.147Z,9.79
2023-01-06T03:08:28.602Z,9.77
2023-01-06T03:10:57.854Z,9.78
2023-01-06T03:13:49.957Z,9.69
2023-01-06T03:16:19.103Z,9.77
2023-01-06T03:18:49.925Z,9.80
2023-01-06T03:21:26.231Z,9.60
2023-01-06T03:23:53.519Z,9.48
2023-01-06T03:26:20.525Z,9.05
2023-01-06T03:28:47.610Z,9.23
2023-01-06T03:31:55.844Z,9.12
2023-01-06T03:34:48.861Z,9.34
2023-01-06T03:37:42.154Z,9.27
2023-01-06T03:40:24.405Z,9.35
2023-01-06T03:43:14.256Z,9.24
2023-01-06T03:46:11.288Z,8.81
2023-01-06T03:49:26.423Z,8.30
2023-01-06T03:52:00.646Z,8.36
2023-01-06T03:54:38.921Z,8.34
2023-01-06T03:57:15.743Z,8.74
2023-01-06T03:59:48.860Z,8.86
2023-01-06T04:02:19.221Z,8.97
2023-01-06T04:05:11.793Z,8.92
2023-01-06T04:07:41.685Z,8.84
2023-01-06T04:10:10.208Z,8.60
2023-01-06T04:12:40.444Z,8.53
2023-01-06T04:15:15.316Z,8.52
2023-01-06T04:17:45.803Z,8.22
2023-01-06T04:20:20.778Z,8.17
2023-01-06T04:22:49.667Z,8.02
2023-01-06T04:25:16.839Z,7.84
2023-01-06T04:27:44.117Z,7.68
2023-01-06T04:30:11.975Z,7.67
2023-01-06T04:32:39.731Z,7.64
2023-01-06T04:35:09.233Z,7.57
2023-01-06T04:37:36.482Z,7.54
2023-01-06T04:40:03.889Z,7.52
2023-01-06T04:42:50.735Z,7.40
2023-01-06T04:45:17.647Z,7.51
2023-01-06T04:47:44.573Z,7.64
2023-01-06T04:50:11.857Z,7.74
2023-01-06T04:52:38.797Z,8.08
2023-01-06T04:55:05.954Z,8.31
2023-01-06T04:57:32.847Z,8.54
2023-01-06T04:59:59.720Z,8.47
2023-01-06T05:02:26.652Z,8.53
2023-01-06T05:04:53.577Z,8.35
2023-01-06T05:07:20.584Z,8.32
2023-01-06T05:09:47.411Z,8.30
2023-01-06T05:12:14.247Z,8.46
2023-01-06T05:14:41.141Z,8.64
2023-01-06T05:17:07.970Z,8.89
2023-01-06T05:19:34.834Z,8.85
2023-01-06T05:22:01.896Z,8.92
2023-01-06T05:24:28.781Z,9.00
2023-01-06T05:26:55.680Z,9.00
2023-01-06T05:29:22.572Z,8.94
2023-01-06T05:31:49.635Z,8.83
2023-01-06T05:34:16.579Z,8.66
2023-01-06T05:36:43.509Z,7.90
2023-01-06T05:39:10.510Z,7.57
2023-01-06T05:41:37.399Z,7.37
2023-01-06T05:44:04.687Z,7.44
2023-01-06T05:46:31.587Z,7.56
2023-01-06T05:49:00.685Z,7.81
2023-01-06T05:51:27.614Z,8.07
2023-01-06T05:53:54.772Z,8.00
2023-01-06T05:56:22.793Z,8.25
2023-01-06T05:58:54.072Z,8.77
2023-01-06T06:01:31.631Z,9.40
2023-01-06T06:03:58.978Z,9.35
2023-01-06T06:06:27.994Z,9.37
2023-01-06T06:08:55.022Z,9.58
2023-01-06T06:11:22.570Z,9.76
2023-01-06T06:13:55.108Z,10.23
2023-01-06T06:16:27.479Z,10.67
2023-01-06T06:18:57.208Z,10.42
2023-01-06T06:21:26.827Z,10.47
2023-01-06T06:23:55.731Z,10.67
2023-01-06T06:26:23.655Z,10.71
2023-01-06T06:28:50.657Z,10.75
2023-01-06T06:31:20.761Z,10.82
2023-01-06T06:33:53.512Z,10.87
2023-01-06T06:36:20.980Z,10.60
2023-01-06T06:38:50.176Z,10.89
2023-01-06T06:41:17.819Z,10.74
2023-01-06T06:43:45.666Z,11.87
2023-01-06T06:46:12.744Z,12.51
2023-01-06T06:48:39.693Z,11.42
2023-01-06T06:51:09.396Z,11.44
2023-01-06T06:53:37.113Z,9.99
2023-01-06T06:56:05.365Z,10.34
2023-01-06T06:58:32.596Z,11.12
2023-01-06T07:00:59.493Z,11.24
2023-01-06T07:03:26.445Z,11.80
2023-01-06T07:05:54.170Z,11.76
2023-01-06T07:08:21.082Z,12.45
2023-01-06T07:10:47.992Z,13.27
2023-01-06T07:13:14.867Z,13.38
2023-01-06T07:15:41.880Z,13.24
2023-01-06T07:18:08.980Z,14.17
2023-01-06T07:20:37.921Z,14.63
2023-01-06T07:23:05.634Z,14.69
2023-01-06T07:25:33.559Z,14.72
2023-01-06T07:28:05.611Z,15.64
2023-01-06T07:30:33.791Z,14.83
2023-01-06T07:33:01.084Z,15.21
2023-01-06T07:35:28.487Z,15.16
2023-01-06T07:37:58.163Z,15.49
2023-01-06T07:40:25.230Z,15.50
2023-01-06T07:42:52.091Z,16.46
2023-01-06T07:45:19.032Z,15.85
2023-01-06T07:47:45.929Z,15.48
2023-01-06T07:50:13.165Z,15.99
2023-01-06T07:52:40.180Z,15.37
2023-01-06T07:55:07.724Z,15.54
2023-01-06T07:57:35.942Z,15.80
2023-01-06T08:00:03.133Z,15.82
2023-01-06T08:02:39.137Z,15.49
2023-01-06T08:05:06.298Z,15.29
2023-01-06T08:07:33.205Z,14.85
2023-01-06T08:10:00.159Z,14.97
2023-01-06T08:12:27.070Z,14.66
2023-01-06T08:14:54.035Z,14.02
2023-01-06T08:17:21.036Z,14.52
2023-01-06T08:19:47.958Z,14.66
2023-01-06T08:22:14.884Z,14.84
2023-01-06T08:24:41.736Z,14.63
2023-01-06T08:27:08.680Z,14.68
2023-01-06T08:29:35.584Z,13.88
2023-01-06T08:32:10.281Z,12.97
2023-01-06T08:34:38.241Z,12.98
2023-01-06T08:37:05.224Z,13.56
2023-01-06T08:39:32.184Z,15.06
2023-01-06T08:41:59.138Z,15.48
2023-01-06T08:44:26.041Z,15.21
2023-01-06T08:46:52.950Z,16.23
2023-01-06T08:49:19.855Z,16.54
2023-01-06T08:51:46.835Z,16.47
2023-01-06T08:54:14.724Z,17.41
2023-01-06T08:56:43.674Z,16.65
2023-01-06T08:59:14.357Z,18.27
2023-01-06T09:01:42.339Z,18.43
2023-01-06T09:04:10.435Z,19.60
2023-01-06T09:06:38.321Z,19.02
2023-01-06T09:09:08.024Z,18.57
2023-01-06T09:11:35.337Z,17.34
2023-01-06T09:14:02.260Z,16.88
2023-01-06T09:16:29.805Z,17.03
2023-01-06T09:18:56.697Z,15.78
2023-01-06T09:21:25.837Z,16.33
2023-01-06T09:23:52.877Z,16.54
2023-01-06T09:26:21.689Z,16.10
2023-01-06T09:28:48.658Z,16.28
2023-01-06T09:31:15.745Z,15.49
2023-01-06T09:33:43.477Z,16.08
2023-01-06T09:36:10.381Z,16.35
2023-01-06T09:38:37.235Z,14.97
2023-01-06T09:41:18.942Z,15.94
2023-01-06T09:43:54.480Z,14.93
2023-01-06T09:46:27.074Z,14.76
2023-01-06T09:49:16.235Z,15.10
2023-01-06T09:51:44.168Z,15.69
2023-01-06T09:54:25.937Z,15.35
2023-01-06T09:57:06.276Z,15.36
2023-01-06T09:59:50.372Z,15.33
2023-01-06T10:02:26.534Z,15.60
2023-01-06T10:04:53.691Z,15.13
2023-01-06T10:07:43.367Z,15.58
2023-01-06T10:10:23.184Z,15.50
2023-01-06T10:13:24.228Z,15.50
2023-01-06T10:16:15.818Z,15.78
2023-01-06T10:18:53.293Z,15.76
2023-01-06T10:21:34.753Z,15.46
2023-01-06T10:24:01.616Z,15.96
2023-01-06T10:26:31.970Z,15.33
2023-01-06T10:29:09.652Z,15.78
2023-01-06T10:31:38.857Z,15.54
2023-01-06T10:34:14.329Z,16.34
2023-01-06T10:36:44.840Z,16.51
2023-01-06T10:39:19.405Z,16.90
2023-01-06T10:42:18.260Z,17.66
2023-01-06T10:44:45.300Z,17.02
2023-01-06T10:47:38.365Z,17.44
2023-01-06T10:50:05.987Z,17.49
2023-01-06T10:52:34.036Z,18.00
2023-01-06T10:55:05.380Z,17.09
2023-01-06T10:57:40.365Z,17.57
2023-01-06T11:00:22.595Z,16.37
2023-01-06T11:02:57.817Z,16.06
2023-01-06T11:05:34.244Z,17.20
2023-01-06T11:08:15.723Z,18.00
2023-01-06T11:10:53.450Z,16.91
2023-01-06T11:13:33.574Z,16.80
2023-01-06T11:16:18.754Z,16.57
2023-01-06T11:19:10.920Z,17.68
2023-01-06T11:21:43.732Z,18.83
2023-01-06T11:24:25.163Z,18.71
2023-01-06T11:27:01.373Z,19.67
2023-01-06T11:29:29.795Z,19.67
2023-01-06T11:31:59.751Z,19.23
2023-01-06T11:34:29.241Z,20.26
2023-01-06T11:36:57.046Z,20.71
2023-01-06T11:39:36.101Z,20.92
2023-01-06T11:42:11.061Z,20.82
2023-01-06T11:44:39.826Z,18.53
2023-01-06T11:47:15.202Z,17.90
2023-01-06T11:49:51.601Z,17.62
2023-01-06T11:52:32.718Z,17.66
2023-01-06T11:55:02.242Z,17.54
2023-01-06T11:57:32.175Z,17.87
2023-01-06T12:00:19.311Z,17.25
2023-01-06T12:03:07.713Z,15.35
2023-01-06T12:05:52.121Z,16.41
2023-01-06T12:08:23.459Z,17.44
2023-01-06T12:11:27.961Z,16.35
2023-01-06T12:14:13.169Z,16.71
2023-01-06T12:16:52.609Z,16.99
2023-01-06T12:19:31.801Z,18.33
2023-01-06T12:22:00.549Z,19.04
2023-01-06T12:24:33.437Z,19.91
2023-01-06T12:27:05.549Z,18.33
2023-01-06T12:29:34.488Z,17.73
2023-01-06T12:32:22.520Z,17.08
2023-01-06T12:34:52.258Z,17.55
2023-01-06T12:37:48.406Z,16.37
2023-01-06T12:40:39.556Z,15.69
2023-01-06T12:43:18.399Z,15.02
2023-01-06T12:46:00.647Z,14.63
2023-01-06T12:48:33.601Z,14.69
2023-01-06T12:51:24.118Z,14.26
2023-01-06T12:53:59.611Z,14.38
2023-01-06T12:56:52.821Z,14.24
2023-01-06T12:59:54.839Z,14.14
2023-01-06T13:02:48.245Z,14.14
2023-01-06T13:05:47.268Z,14.80
2023-01-06T13:08:35.328Z,15.35
2023-01-06T13:11:22.991Z,14.80
2023-01-06T13:13:52.572Z,15.31
2023-01-06T13:16:37.680Z,15.48
2023-01-06T13:19:21.552Z,15.70
2023-01-06T13:21:57.221Z,15.83
2023-01-06T13:24:45.584Z,15.98
2023-01-06T13:27:33.739Z,15.84
2023-01-06T13:30:34.611Z,15.58
2023-01-06T13:33:33.420Z,15.74
2023-01-06T13:36:34.213Z,15.49
2023-01-06T13:39:11.299Z,15.55
2023-01-06T13:41:40.968Z,15.36
2023-01-06T13:44:20.889Z,15.34
2023-01-06T13:46:50.937Z,15.76
2023-01-06T13:49:19.400Z,15.55
2023-01-06T13:51:47.473Z,15.44
2023-01-06T13:54:42.104Z,15.07
2023-01-06T13:57:29.229Z,15.38
2023-01-06T14:00:04.960Z,15.92
2023-01-06T14:02:59.245Z,16.04
2023-01-06T14:05:27.936Z,16.39
2023-01-06T14:07:59.840Z,16.55
2023-01-06T14:10:43.992Z,15.85
2023-01-06T14:13:39.971Z,14.93
2023-01-06T14:16:11.544Z,14.58
2023-01-06T14:18:38.614Z,14.58
2023-01-06T14:21:16.111Z,14.81
2023-01-06T14:23:54.888Z,14.83
2023-01-06T14:26:42.559Z,15.05
2023-01-06T14:29:37.456Z,12.01
2023-01-06T14:32:04.452Z,10.81
2023-01-06T14:34:32.684Z,10.13
2023-01-06T14:37:00.838Z,9.95
2023-01-06T14:39:33.276Z,9.85
2023-01-06T14:42:08.651Z,10.02
2023-01-06T14:44:36.811Z,9.87
2023-01-06T14:47:15.052Z,9.89
2023-01-06T14:49:53.827Z,9.92
2023-01-06T14:52:31.861Z,10.12
2023-01-06T14:55:00.646Z,9.90
2023-01-06T14:57:38.552Z,9.79
2023-01-06T15:00:08.141Z,9.67
2023-01-06T15:02:35.573Z,9.45
2023-01-06T15:05:03.095Z,9.44
2023-01-06T15:07:30.627Z,9.49
2023-01-06T15:10:21.264Z,9.40
2023-01-06T15:12:56.666Z,9.33
2023-01-06T15:15:30.235Z,9.19
2023-01-06T15:17:59.989Z,9.14
2023-01-06T15:20:35.787Z,9.28
2023-01-06T15:23:03.036Z,9.25
2023-01-06T15:25:32.017Z,9.23
2023-01-06T15:27:58.884Z,9.22
2023-01-06T15:30:28.352Z,9.27
2023-01-06T15:32:56.592Z,9.21
2023-01-06T15:35:29.476Z,9.15
2023-01-06T15:38:04.561Z,9.17
2023-01-06T15:40:32.411Z,9.22
2023-01-06T15:42:59.360Z,9.48
2023-01-06T15:45:32.435Z,9.36
2023-01-06T15:48:02.748Z,9.23
2023-01-06T15:50:31.903Z,9.18
2023-01-06T15:53:04.247Z,9.15
2023-01-06T15:55:43.136Z,9.26
2023-01-06T15:58:20.766Z,9.19
2023-01-06T16:00:51.145Z,9.33
2023-01-06T16:03:24.046Z,9.42
2023-01-06T16:05:57.664Z,9.74
2023-01-06T16:08:30.579Z,9.67
2023-01-06T16:11:16.131Z,9.47
2023-01-06T16:13:57.458Z,9.37
2023-01-06T16:16:31.657Z,9.26
2023-01-06T16:18:58.780Z,9.46
2023-01-06T16:21:30.357Z,9.54
2023-01-06T16:24:00.286Z,9.70
2023-01-06T16:26:30.149Z,9.52
2023-01-06T16:29:00.491Z,9.33
2023-01-06T16:31:33.325Z,9.17
2023-01-06T16:34:16.615Z,9.17
2023-01-06T16:36:43.669Z,9.54
2023-01-06T16:39:10.558Z,9.78
2023-01-06T16:41:37.553Z,9.65
2023-01-06T16:44:04.603Z,9.29
2023-01-06T16:46:31.658Z,9.34
2023-01-06T16:49:06.164Z,9.48
2023-01-06T16:51:33.869Z,9.56
2023-01-06T16:54:00.946Z,9.75
2023-01-06T16:56:29.231Z,9.87
2023-01-06T16:58:56.543Z,9.55
2023-01-06T17:01:23.787Z,9.49
2023-01-06T17:03:55.789Z,9.35
2023-01-06T17:06:26.064Z,9.68
2023-01-06T17:08:57.072Z,10.37
2023-01-06T17:11:27.168Z,10.89
2023-01-06T17:13:57.378Z,10.92
2023-01-06T17:16:29.877Z,11.10
2023-01-06T17:19:02.505Z,10.37
2023-01-06T17:21:38.299Z,10.14
2023-01-06T17:24:18.297Z,10.62
2023-01-06T17:26:55.957Z,10.88
2023-01-06T17:29:23.656Z,11.02
2023-01-06T17:31:53.020Z,10.92
2023-01-06T17:34:24.957Z,10.50
2023-01-06T17:36:55.887Z,10.41
2023-01-06T17:39:31.251Z,10.19
2023-01-06T17:42:03.955Z,9.96
2023-01-06T17:44:58.327Z,10.20
2023-01-06T17:47:29.274Z,10.22
2023-01-06T17:49:59.141Z,10.02
2023-01-06T17:52:33.042Z,9.84
2023-01-06T17:55:43.288Z,9.89
2023-01-06T17:58:22.499Z,9.92
2023-01-06T18:00:49.667Z,9.73
2023-01-06T18:03:24.294Z,10.00
2023-01-06T18:05:57.823Z,10.45
2023-01-06T18:08:26.482Z,10.79
2023-01-06T18:11:03.309Z,11.26
2023-01-06T18:13:37.754Z,11.34
2023-01-06T18:16:27.818Z,11.33
2023-01-06T18:19:03.303Z,11.30
2023-01-06T18:21:36.269Z,10.75
2023-01-06T18:24:30.261Z,10.81
2023-01-06T18:26:59.582Z,10.82
2023-01-06T18:29:37.881Z,10.74
2023-01-06T18:32:25.069Z,10.55
2023-01-06T18:34:54.708Z,10.41
2023-01-06T18:37:32.635Z,10.24
2023-01-06T18:40:04.942Z,10.14
2023-01-06T18:42:41.770Z,10.12
2023-01-06T18:45:08.709Z,10.12
2023-01-06T18:47:38.245Z,10.12
2023-01-06T18:50:43.881Z,10.15
2023-01-06T18:53:14.072Z,10.16
2023-01-06T18:55:45.975Z,10.27
2023-01-06T18:58:26.758Z,10.11
2023-01-06T19:00:57.372Z,10.05
2023-01-06T19:03:37.027Z,9.96
2023-01-06T19:06:33.509Z,10.17
2023-01-06T19:09:02.935Z,10.61
2023-01-06T19:11:32.456Z,11.14
2023-01-06T19:14:01.979Z,11.18
2023-01-06T19:16:36.403Z,11.18
2023-01-06T19:19:34.792Z,11.15
2023-01-06T19:22:21.908Z,10.75
2023-01-06T19:24:53.321Z,11.15
2023-01-06T19:27:20.135Z,10.94
2023-01-06T19:29:47.078Z,10.70
2023-01-06T19:32:15.412Z,11.03
2023-01-06T19:34:42.417Z,10.91
2023-01-06T19:37:18.118Z,10.47
2023-01-06T19:39:50.826Z,10.16
2023-01-06T19:42:23.787Z,10.11
2023-01-06T19:44:54.482Z,10.17
2023-01-06T19:47:47.684Z,10.22
2023-01-06T19:50:23.737Z,10.45
2023-01-06T19:52:58.995Z,10.16
2023-01-06T19:55:28.196Z,9.98
2023-01-06T19:57:59.188Z,9.86
2023-01-06T20:00:40.053Z,10.13
2023-01-06T20:03:27.785Z,10.74
2023-01-06T20:05:54.809Z,11.02
2023-01-06T20:08:21.669Z,10.97
2023-01-06T20:10:48.837Z,10.91
2023-01-06T20:13:15.824Z,10.70
2023-01-06T20:15:42.762Z,10.82
2023-01-06T20:18:09.651Z,11.02
2023-01-06T20:20:36.558Z,11.24
2023-01-06T20:23:03.513Z,11.28
2023-01-06T20:25:30.500Z,11.35
2023-01-06T20:27:57.517Z,10.89
2023-01-06T20:30:24.560Z,11.18
2023-01-06T20:32:51.575Z,10.73
2023-01-06T20:35:20.210Z,10.07
2023-01-06T20:37:47.077Z,9.92
2023-01-06T20:40:14.136Z,9.81
2023-01-06T20:42:41.118Z,9.78
2023-01-06T20:45:08.436Z,9.32
2023-01-06T20:47:35.440Z,9.29
2023-01-06T20:50:02.471Z,8.80
2023-01-06T20:52:29.382Z,8.67
2023-01-06T20:54:56.281Z,8.79
2023-01-06T20:57:23.256Z,8.85
2023-01-06T20:59:50.231Z,8.62
2023-01-06T21:02:17.358Z,8.38
2023-01-06T21:04:44.383Z,8.34
2023-01-06T21:07:11.361Z,8.60
2023-01-06T21:09:38.257Z,9.48
2023-01-06T21:12:05.455Z,9.83
2023-01-06T21:14:33.964Z,9.64
2023-01-06T21:17:01.350Z,9.45
2023-01-06T21:19:28.302Z,9.69
2023-01-06T21:21:55.259Z,9.86
2023-01-06T21:24:22.257Z,9.78
2023-01-06T21:26:49.153Z,10.09
2023-01-06T21:29:16.204Z,10.10
2023-01-06T21:31:43.940Z,9.65
2023-01-06T21:34:11.061Z,9.34
2023-01-06T21:36:37.940Z,9.29
2023-01-06T21:39:07.616Z,9.12
2023-01-06T21:41:52.963Z,8.93
2023-01-06T21:44:21.275Z,8.79
2023-01-06T21:46:48.174Z,8.62
2023-01-06T21:49:15.518Z,8.49
2023-01-06T21:51:42.614Z,8.40
2023-01-06T21:54:09.921Z,8.35
2023-01-06T21:56:36.865Z,8.38
2023-01-06T21:59:04.012Z,8.42
2023-01-06T22:01:30.987Z,8.47
2023-01-06T22:03:57.950Z,8.66
2023-01-06T22:06:25.667Z,8.87
2023-01-06T22:08:54.351Z,9.40
2023-01-06T22:11:21.377Z,9.63
2023-01-06T22:13:48.460Z,10.13
2023-01-06T22:16:15.688Z,10.05
2023-01-06T22:18:42.789Z,9.73
2023-01-06T22:21:09.702Z,9.38
2023-01-06T22:23:37.139Z,9.02
2023-01-06T22:26:04.430Z,8.35
2023-01-06T22:28:31.332Z,8.11
2023-01-06T22:30:58.321Z,8.11
2023-01-06T22:33:25.304Z,8.20
2023-01-06T22:35:57.093Z,8.08
2023-01-06T22:38:24.057Z,8.02
2023-01-06T22:40:51.124Z,8.02
2023-01-06T22:43:20.754Z,8.08
2023-01-06T22:45:56.818Z,7.97
2023-01-06T22:48:24.934Z,7.76
2023-01-06T22:51:04.573Z,7.83
2023-01-06T22:53:32.529Z,7.98
2023-01-06T22:56:10.434Z,8.25
2023-01-06T22:58:39.308Z,8.40
2023-01-06T23:01:07.641Z,8.31
2023-01-06T23:03:35.430Z,8.53
2023-01-06T23:06:11.038Z,8.77
2023-01-06T23:08:48.027Z,9.19
2023-01-06T23:11:22.636Z,9.69
2023-01-06T23:13:49.588Z,9.83
2023-01-06T23:16:19.190Z,9.85
2023-01-06T23:18:48.364Z,9.92
2023-01-06T23:21:21.576Z,9.52
2023-01-06T23:23:50.330Z,8.80
2023-01-06T23:26:22.478Z,8.27
2023-01-06T23:28:51.470Z,7.94
2023-01-06T23:31:21.253Z,7.81
2023-01-06T23:33:51.408Z,7.46
2023-01-06T23:36:20.329Z,7.42
2023-01-06T23:38:47.579Z,7.43
2023-01-06T23:41:20.255Z,7.55
2023-01-06T23:43:47.515Z,7.56
2023-01-06T23:46:20.157Z,7.49
2023-01-06T23:48:48.413Z,7.58
2023-01-06T23:51:16.275Z,7.93
2023-01-06T23:53:44.025Z,8.34
2023-01-06T23:56:13.967Z,7.90
2023-01-06T23:58:43.033Z,7.74
